createdAt,value
2023-02-26T00:00:15.421Z,55.41
2023-02-26T00:01:14.907Z,55.45
2023-02-26T00:02:11.942Z,55.11
2023-02-26T00:03:08.755Z,54.71
2023-02-26T00:04:07.285Z,55.09
2023-02-26T00:05:05.805Z,55.20
2023-02-26T00:06:02.542Z,54.57
2023-02-26T00:06:59.432Z,53.91
2023-02-26T00:07:56.552Z,53.91
2023-02-26T00:08:55.444Z,53.97
2023-02-26T00:09:52.322Z,54.06
2023-02-26T00:10:49.180Z,53.71
2023-02-26T00:11:50.973Z,53.87
2023-02-26T00:12:50.446Z,53.85
2023-02-26T00:13:48.162Z,53.98
2023-02-26T00:14:48.195Z,53.88
2023-02-26T00:15:45.526Z,53.44
2023-02-26T00:16:45.067Z,53.44
2023-02-26T00:18:20.542Z,54.03
2023-02-26T00:19:17.472Z,54.18
2023-02-26T00:20:16.877Z,54.29
2023-02-26T00:21:22.338Z,54.04
2023-02-26T00:22:19.342Z,54.84
2023-02-26T00:23:16.499Z,54.57
2023-02-26T00:24:13.342Z,54.46
2023-02-26T00:25:11.111Z,54.30
2023-02-26T00:26:07.893Z,54.94
2023-02-26T00:27:04.750Z,54.42
2023-02-26T00:28:01.767Z,54.26
2023-02-26T00:28:59.073Z,54.08
2023-02-26T00:29:56.221Z,54.20
2023-02-26T00:30:53.402Z,54.22
2023-02-26T00:31:50.543Z,53.81
2023-02-26T00:32:47.622Z,53.72
2023-02-26T00:33:45.285Z,53.84
2023-02-26T00:34:42.551Z,53.29
2023-02-26T00:35:39.747Z,53.24
2023-02-26T00:36:42.196Z,52.81
2023-02-26T00:38:00.056Z,53.12
2023-02-26T00:39:15.294Z,52.95
2023-02-26T00:40:28.364Z,52.45
2023-02-26T00:41:25.495Z,53.03
2023-02-26T00:42:22.541Z,52.80
2023-02-26T00:43:25.157Z,52.94
2023-02-26T00:44:22.277Z,53.02
2023-02-26T00:45:19.483Z,53.18
2023-02-26T00:46:34.773Z,52.61
2023-02-26T00:47:49.555Z,53.04
2023-02-26T00:49:39.790Z,53.38
2023-02-26T00:50:41.263Z,53.07
2023-02-26T00:52:02.276Z,52.87
2023-02-26T00:53:25.069Z,53.10
2023-02-26T00:54:27.872Z,52.87
2023-02-26T00:55:24.608Z,52.93
2023-02-26T00:56:21.446Z,53.23
2023-02-26T00:57:18.188Z,53.33
2023-02-26T00:58:14.970Z,52.81
2023-02-26T00:59:11.703Z,52.80
2023-02-26T01:00:09.588Z,52.62
2023-02-26T01:01:06.367Z,52.75
2023-02-26T01:02:03.121Z,52.30
2023-02-26T01:03:00.420Z,51.60
2023-02-26T01:03:57.601Z,51.52
2023-02-26T01:04:56.284Z,51.82
2023-02-26T01:05:53.492Z,51.45
2023-02-26T01:06:55.805Z,51.44
2023-02-26T01:08:14.140Z,51.14
2023-02-26T01:09:33.900Z,51.19
2023-02-26T01:10:31.380Z,51.47
2023-02-26T01:11:28.579Z,51.71
2023-02-26T01:12:33.304Z,51.11
2023-02-26T01:13:30.423Z,50.96
2023-02-26T01:14:28.535Z,51.08
2023-02-26T01:15:25.689Z,51.07
2023-02-26T01:16:27.749Z,51.70
2023-02-26T01:17:51.625Z,51.01
2023-02-26T01:18:56.348Z,51.73
2023-02-26T01:20:01.393Z,51.32
2023-02-26T01:21:04.879Z,51.60
2023-02-26T01:22:23.746Z,51.28
2023-02-26T01:23:26.215Z,51.15
2023-02-26T01:24:25.322Z,51.47
2023-02-26T01:25:28.497Z,51.32
2023-02-26T01:26:29.310Z,51.32
2023-02-26T01:27:27.389Z,51.39
2023-02-26T01:28:25.967Z,51.54
2023-02-26T01:29:23.066Z,50.94
2023-02-26T01:30:20.813Z,51.45
2023-02-26T01:31:34.991Z,51.17
2023-02-26T01:32:34.824Z,50.61
2023-02-26T01:33:56.183Z,51.59
2023-02-26T01:35:06.064Z,51.15
2023-02-26T01:36:32.597Z,50.69
2023-02-26T01:37:41.424Z,50.90
2023-02-26T01:38:38.179Z,50.57
2023-02-26T01:39:53.263Z,50.63
2023-02-26T01:41:25.981Z,50.13
2023-02-26T01:42:27.788Z,50.37
2023-02-26T01:43:39.989Z,50.22
2023-02-26T01:44:51.505Z,50.13
2023-02-26T01:46:09.370Z,50.26
2023-02-26T01:47:23.782Z,50.06
2023-02-26T01:48:47.896Z,49.44
2023-02-26T01:49:45.363Z,49.72
2023-02-26T01:50:42.208Z,49.36
2023-02-26T01:51:44.627Z,49.23
2023-02-26T01:52:47.383Z,49.01
2023-02-26T01:53:44.138Z,49.07
2023-02-26T01:54:41.038Z,49.12
2023-02-26T01:55:37.864Z,48.88
2023-02-26T01:56:35.868Z,48.65
2023-02-26T01:57:32.744Z,48.92
2023-02-26T01:58:35.142Z,49.06
2023-02-26T01:59:39.462Z,48.58
2023-02-26T02:00:36.233Z,48.44
2023-02-26T02:01:34.079Z,48.71
2023-02-26T02:02:31.512Z,48.05
2023-02-26T02:03:32.167Z,48.33
2023-02-26T02:04:30.344Z,48.58
2023-02-26T02:05:39.057Z,48.81
2023-02-26T02:06:35.901Z,48.49
2023-02-26T02:07:33.322Z,48.96
2023-02-26T02:08:35.558Z,48.69
2023-02-26T02:09:32.744Z,48.85
2023-02-26T02:10:32.986Z,48.99
2023-02-26T02:11:29.837Z,49.47
2023-02-26T02:12:35.618Z,49.10
2023-02-26T02:13:37.988Z,48.65
2023-02-26T02:15:00.564Z,48.75
2023-02-26T02:16:06.385Z,48.22
2023-02-26T02:17:15.120Z,48.95
2023-02-26T02:18:29.711Z,48.79
2023-02-26T02:19:55.375Z,48.69
2023-02-26T02:21:24.295Z,47.87
2023-02-26T02:22:46.172Z,48.55
2023-02-26T02:23:59.637Z,48.16
2023-02-26T02:25:21.397Z,48.39
2023-02-26T02:26:40.611Z,48.50
2023-02-26T02:27:46.227Z,48.30
2023-02-26T02:29:20.588Z,48.06
2023-02-26T02:30:56.400Z,48.61
2023-02-26T02:32:09.999Z,48.50
2023-02-26T02:33:17.641Z,47.94
2023-02-26T02:34:23.390Z,47.99
2023-02-26T02:35:27.657Z,47.96
2023-02-26T02:36:29.832Z,47.76
2023-02-26T02:37:38.170Z,47.51
2023-02-26T02:38:45.358Z,47.63
2023-02-26T02:39:52.989Z,47.44
2023-02-26T02:41:10.350Z,47.77
2023-02-26T02:42:43.044Z,47.15
2023-02-26T02:43:43.704Z,47.88
2023-02-26T02:44:46.765Z,47.16
2023-02-26T02:46:06.112Z,47.76
2023-02-26T02:47:06.989Z,47.66
2023-02-26T02:48:16.360Z,47.65
2023-02-26T02:49:25.454Z,47.84
2023-02-26T02:50:44.152Z,47.79
2023-02-26T02:51:52.478Z,47.54
2023-02-26T02:52:53.830Z,47.63
2023-02-26T02:54:30.096Z,47.59
2023-02-26T02:55:34.379Z,47.24
2023-02-26T02:56:51.714Z,47.71
2023-02-26T02:58:17.280Z,47.82
2023-02-26T02:59:35.420Z,47.48
2023-02-26T03:00:38.475Z,47.10
2023-02-26T03:01:37.805Z,47.12
2023-02-26T03:02:55.221Z,47.47
2023-02-26T03:04:09.297Z,47.33
2023-02-26T03:05:06.471Z,47.18
2023-02-26T03:06:04.092Z,46.92
2023-02-26T03:07:00.783Z,47.46
2023-02-26T03:08:09.697Z,47.57
2023-02-26T03:09:09.656Z,47.30
2023-02-26T03:10:07.148Z,47.29
2023-02-26T03:11:04.518Z,47.28
2023-02-26T03:12:01.378Z,47.30
2023-02-26T03:12:58.161Z,47.77
2023-02-26T03:13:55.752Z,47.02
2023-02-26T03:14:52.885Z,47.49
2023-02-26T03:16:16.742Z,47.09
2023-02-26T03:17:43.311Z,46.34
2023-02-26T03:18:52.289Z,46.37
2023-02-26T03:20:14.923Z,46.39
2023-02-26T03:21:21.687Z,46.74
2023-02-26T03:22:32.154Z,46.52
2023-02-26T03:23:40.245Z,46.34
2023-02-26T03:25:18.650Z,46.42
2023-02-26T03:26:29.771Z,46.69
2023-02-26T03:27:54.990Z,46.29
2023-02-26T03:29:04.501Z,46.39
2023-02-26T03:30:22.632Z,45.83
2023-02-26T03:31:38.269Z,46.12
2023-02-26T03:33:12.542Z,46.04
2023-02-26T03:34:20.910Z,46.34
2023-02-26T03:35:35.805Z,45.82
2023-02-26T03:36:40.972Z,46.08
2023-02-26T03:37:48.230Z,46.02
2023-02-26T03:39:12.464Z,46.56
2023-02-26T03:40:47.835Z,46.61
2023-02-26T03:42:07.602Z,46.08
2023-02-26T03:43:14.865Z,46.14
2023-02-26T03:44:24.463Z,46.58
2023-02-26T03:45:31.669Z,46.39
2023-02-26T03:46:37.566Z,46.32
2023-02-26T03:47:36.524Z,46.66
2023-02-26T03:48:36.645Z,46.70
2023-02-26T03:49:42.535Z,46.70
2023-02-26T03:50:51.243Z,47.00
2023-02-26T03:51:48.767Z,47.18
2023-02-26T03:52:49.858Z,47.07
2023-02-26T03:54:21.102Z,46.98
2023-02-26T03:55:30.228Z,47.19
2023-02-26T03:56:37.660Z,47.19
2023-02-26T03:57:35.375Z,47.75
2023-02-26T03:58:32.390Z,47.41
2023-02-26T03:59:29.434Z,47.82
2023-02-26T04:00:29.076Z,47.80
2023-02-26T04:01:37.756Z,47.67
2023-02-26T04:02:58.492Z,48.06
2023-02-26T04:04:08.801Z,47.79
2023-02-26T04:05:16.224Z,47.36
2023-02-26T04:06:13.245Z,47.78
2023-02-26T04:07:13.092Z,47.87
2023-02-26T04:08:09.866Z,47.91
2023-02-26T04:09:07.190Z,48.26
2023-02-26T04:10:05.145Z,48.09
2023-02-26T04:11:12.461Z,47.45
2023-02-26T04:12:09.210Z,48.05
2023-02-26T04:13:06.206Z,48.01
2023-02-26T04:14:03.000Z,47.67
2023-02-26T04:15:00.310Z,47.64
2023-02-26T04:15:57.119Z,47.42
2023-02-26T04:16:54.035Z,48.01
2023-02-26T04:17:50.780Z,48.35
2023-02-26T04:18:47.547Z,48.00
2023-02-26T04:19:44.436Z,47.51
2023-02-26T04:20:41.380Z,47.12
2023-02-26T04:21:38.387Z,47.62
2023-02-26T04:22:35.241Z,47.84
2023-02-26T04:23:31.968Z,47.60
2023-02-26T04:24:28.811Z,47.77
2023-02-26T04:25:25.589Z,48.00
2023-02-26T04:26:22.522Z,47.93
2023-02-26T04:27:19.497Z,48.00
2023-02-26T04:28:16.494Z,48.03
2023-02-26T04:29:13.226Z,48.06
2023-02-26T04:30:10.673Z,47.77
2023-02-26T04:31:09.027Z,47.99
2023-02-26T04:32:06.545Z,48.57
2023-02-26T04:33:03.636Z,48.82
2023-02-26T04:34:00.618Z,48.23
2023-02-26T04:34:57.435Z,48.42
2023-02-26T04:35:54.208Z,47.85
2023-02-26T04:36:50.957Z,48.15
2023-02-26T04:37:47.719Z,47.93
2023-02-26T04:38:44.558Z,47.92
2023-02-26T04:39:41.314Z,47.24
2023-02-26T04:40:38.111Z,47.69
2023-02-26T04:41:34.916Z,47.43
2023-02-26T04:42:31.925Z,46.77
2023-02-26T04:43:29.134Z,47.25
2023-02-26T04:44:25.948Z,47.24
2023-02-26T04:45:23.003Z,47.54
2023-02-26T04:46:19.819Z,46.79
2023-02-26T04:47:16.638Z,47.26
2023-02-26T04:48:14.766Z,46.94
2023-02-26T04:49:11.733Z,46.78
2023-02-26T04:50:09.304Z,47.18
2023-02-26T04:51:06.308Z,46.82
2023-02-26T04:52:03.117Z,47.10
2023-02-26T04:52:59.847Z,47.39
2023-02-26T04:53:57.280Z,47.16
2023-02-26T04:54:54.057Z,47.40
2023-02-26T04:55:52.440Z,46.92
2023-02-26T04:56:49.352Z,47.02
2023-02-26T04:57:46.157Z,46.35
2023-02-26T04:58:43.010Z,46.76
2023-02-26T04:59:39.748Z,46.77
2023-02-26T05:00:36.690Z,46.61
2023-02-26T05:01:33.761Z,47.01
2023-02-26T05:02:30.585Z,47.05
2023-02-26T05:03:27.376Z,46.92
2023-02-26T05:04:24.212Z,47.27
2023-02-26T05:05:21.481Z,46.95
2023-02-26T05:06:18.186Z,46.81
2023-02-26T05:07:14.918Z,47.28
2023-02-26T05:08:11.714Z,47.47
2023-02-26T05:09:08.558Z,47.47
2023-02-26T05:10:06.771Z,47.20
2023-02-26T05:11:03.563Z,46.79
2023-02-26T05:12:00.334Z,46.82
2023-02-26T05:12:57.088Z,46.85
2023-02-26T05:13:53.887Z,46.69
2023-02-26T05:14:50.644Z,46.60
2023-02-26T05:15:47.481Z,46.53
2023-02-26T05:16:44.435Z,45.74
2023-02-26T05:17:41.245Z,46.25
2023-02-26T05:18:38.194Z,46.34
2023-02-26T05:19:39.509Z,47.03
2023-02-26T05:20:36.454Z,46.47
2023-02-26T05:21:35.936Z,46.32
2023-02-26T05:22:36.196Z,46.67
2023-02-26T05:23:35.499Z,46.03
2023-02-26T05:24:32.301Z,45.81
2023-02-26T05:25:34.198Z,45.82
2023-02-26T05:26:35.225Z,45.56
2023-02-26T05:27:32.736Z,45.27
2023-02-26T05:28:35.164Z,45.58
2023-02-26T05:29:36.081Z,45.40
2023-02-26T05:30:32.922Z,45.67
2023-02-26T05:31:29.997Z,45.60
2023-02-26T05:32:30.139Z,45.56
2023-02-26T05:33:29.535Z,45.73
2023-02-26T05:34:28.138Z,45.83
2023-02-26T05:35:24.934Z,45.36
2023-02-26T05:36:21.829Z,45.28
2023-02-26T05:37:20.729Z,45.05
2023-02-26T05:38:17.549Z,44.97
2023-02-26T05:39:16.578Z,44.97
2023-02-26T05:40:14.146Z,44.70
2023-02-26T05:41:13.345Z,44.98
2023-02-26T05:42:10.197Z,44.76
2023-02-26T05:43:09.394Z,44.40
2023-02-26T05:44:10.376Z,43.94
2023-02-26T05:45:08.063Z,44.13
2023-02-26T05:46:07.766Z,44.09
2023-02-26T05:47:06.450Z,44.42
2023-02-26T05:48:03.327Z,44.35
2023-02-26T05:49:02.771Z,44.63
2023-02-26T05:49:59.566Z,44.48
2023-02-26T05:50:59.252Z,43.88
2023-02-26T05:51:58.140Z,44.37
2023-02-26T05:52:54.892Z,44.37
2023-02-26T05:53:53.577Z,44.12
2023-02-26T05:54:50.470Z,44.23
2023-02-26T05:55:56.983Z,43.95
2023-02-26T05:56:53.715Z,44.32
2023-02-26T05:57:50.709Z,44.14
2023-02-26T05:58:47.453Z,44.06
2023-02-26T05:59:44.260Z,43.85
2023-02-26T06:00:43.144Z,44.14
2023-02-26T06:01:45.380Z,43.04
2023-02-26T06:02:44.487Z,43.45
2023-02-26T06:04:03.271Z,43.54
2023-02-26T06:05:03.232Z,42.87
2023-02-26T06:06:02.198Z,42.51
2023-02-26T06:06:58.928Z,42.97
2023-02-26T06:07:57.936Z,42.36
2023-02-26T06:08:54.904Z,42.01
2023-02-26T06:09:53.087Z,42.75
2023-02-26T06:10:54.300Z,42.40
2023-02-26T06:11:51.106Z,42.26
2023-02-26T06:12:47.929Z,41.81
2023-02-26T06:13:47.759Z,41.88
2023-02-26T06:14:44.571Z,41.97
2023-02-26T06:15:41.383Z,41.42
2023-02-26T06:16:42.282Z,40.74
2023-02-26T06:17:40.819Z,40.82
2023-02-26T06:18:37.744Z,40.93
2023-02-26T06:19:34.622Z,40.72
2023-02-26T06:20:31.408Z,40.44
2023-02-26T06:21:30.819Z,41.00
2023-02-26T06:22:27.549Z,40.17
2023-02-26T06:23:26.415Z,40.34
2023-02-26T06:24:23.463Z,40.46
2023-02-26T06:25:22.510Z,40.09
2023-02-26T06:26:19.277Z,40.09
2023-02-26T06:27:18.180Z,40.39
2023-02-26T06:28:14.902Z,40.63
2023-02-26T06:29:12.075Z,40.11
2023-02-26T06:30:09.580Z,40.53
2023-02-26T06:31:06.497Z,40.44
2023-02-26T06:32:08.009Z,40.36
2023-02-26T06:33:06.653Z,39.91
2023-02-26T06:34:03.536Z,40.43
2023-02-26T06:35:01.426Z,39.49
2023-02-26T06:36:00.277Z,39.54
2023-02-26T06:36:57.125Z,39.71
2023-02-26T06:38:00.563Z,39.94
2023-02-26T06:38:57.558Z,39.57
2023-02-26T06:39:56.344Z,39.67
2023-02-26T06:40:53.168Z,39.54
2023-02-26T06:41:51.118Z,39.52
2023-02-26T06:42:50.582Z,38.83
2023-02-26T06:43:49.927Z,39.38
2023-02-26T06:44:48.602Z,39.10
2023-02-26T06:45:46.458Z,39.00
2023-02-26T06:46:43.419Z,39.28
2023-02-26T06:47:43.109Z,38.61
2023-02-26T06:48:39.865Z,38.57
2023-02-26T06:49:39.736Z,38.28
2023-02-26T06:50:39.634Z,38.38
2023-02-26T06:51:36.415Z,38.19
2023-02-26T06:52:37.585Z,38.15
2023-02-26T06:53:34.364Z,38.63
2023-02-26T06:54:31.079Z,38.93
2023-02-26T06:55:30.282Z,38.94
2023-02-26T06:56:27.572Z,38.43
2023-02-26T06:57:27.455Z,37.82
2023-02-26T06:58:25.074Z,38.03
2023-02-26T06:59:22.145Z,38.54
2023-02-26T07:00:19.252Z,37.82
2023-02-26T07:01:16.553Z,38.23
2023-02-26T07:02:23.515Z,38.21
2023-02-26T07:03:20.391Z,37.75
2023-02-26T07:04:20.308Z,38.29
2023-02-26T07:05:17.445Z,37.81
2023-02-26T07:06:26.912Z,38.13
2023-02-26T07:07:24.715Z,37.91
2023-02-26T07:08:21.762Z,37.82
2023-02-26T07:09:20.208Z,37.62
2023-02-26T07:10:22.608Z,38.04
2023-02-26T07:11:20.789Z,37.63
2023-02-26T07:12:17.784Z,38.24
2023-02-26T07:13:14.633Z,37.63
2023-02-26T07:14:11.488Z,37.30
2023-02-26T07:15:12.615Z,37.90
2023-02-26T07:16:09.478Z,37.69
2023-02-26T07:17:07.219Z,38.35
2023-02-26T07:18:07.116Z,38.06
2023-02-26T07:19:03.874Z,37.71
2023-02-26T07:20:06.302Z,38.10
2023-02-26T07:21:04.842Z,37.81
2023-02-26T07:22:01.640Z,38.40
2023-02-26T07:22:58.427Z,37.94
2023-02-26T07:23:58.013Z,37.76
2023-02-26T07:24:56.078Z,37.84
2023-02-26T07:25:52.884Z,38.41
2023-02-26T07:26:49.742Z,37.95
2023-02-26T07:27:47.427Z,38.75
2023-02-26T07:28:44.163Z,37.77
2023-02-26T07:29:40.970Z,38.66
2023-02-26T07:30:37.785Z,37.83
2023-02-26T07:31:34.752Z,37.99
2023-02-26T07:32:31.905Z,37.83
2023-02-26T07:33:28.967Z,37.74
2023-02-26T07:34:25.728Z,37.72
2023-02-26T07:35:22.785Z,37.64
2023-02-26T07:36:19.638Z,37.94
2023-02-26T07:37:16.410Z,37.97
2023-02-26T07:38:13.574Z,37.30
2023-02-26T07:39:11.227Z,38.05
2023-02-26T07:40:09.471Z,38.13
2023-02-26T07:41:06.242Z,38.51
2023-02-26T07:42:03.147Z,38.53
2023-02-26T07:43:02.878Z,38.31
2023-02-26T07:43:59.660Z,38.29
2023-02-26T07:44:56.448Z,38.29
2023-02-26T07:45:54.340Z,38.11
2023-02-26T07:46:51.190Z,38.01
2023-02-26T07:47:49.003Z,38.10
2023-02-26T07:48:45.741Z,37.47
2023-02-26T07:49:42.499Z,38.16
2023-02-26T07:50:39.253Z,38.22
2023-02-26T07:51:36.831Z,38.38
2023-02-26T07:52:33.636Z,38.43
2023-02-26T07:53:30.456Z,37.95
2023-02-26T07:54:27.431Z,38.40
2023-02-26T07:55:24.260Z,38.25
2023-02-26T07:56:21.182Z,37.52
2023-02-26T07:57:18.763Z,38.01
2023-02-26T07:58:15.567Z,38.18
2023-02-26T07:59:12.405Z,37.93
2023-02-26T08:00:10.012Z,37.99
2023-02-26T08:01:07.237Z,37.41
2023-02-26T08:02:04.373Z,37.33
2023-02-26T08:03:01.118Z,38.12
2023-02-26T08:03:57.966Z,37.38
2023-02-26T08:04:54.843Z,36.93
2023-02-26T08:05:51.521Z,37.31
2023-02-26T08:06:48.422Z,37.74
2023-02-26T08:07:45.468Z,37.39
2023-02-26T08:08:42.306Z,37.71
2023-02-26T08:09:39.060Z,37.50
2023-02-26T08:10:35.952Z,36.88
2023-02-26T08:11:39.813Z,37.27
2023-02-26T08:12:37.036Z,37.54
2023-02-26T08:13:34.012Z,36.77
2023-02-26T08:14:30.742Z,37.20
2023-02-26T08:15:27.655Z,36.91
2023-02-26T08:16:24.773Z,37.03
2023-02-26T08:17:21.741Z,37.41
2023-02-26T08:18:18.775Z,37.14
2023-02-26T08:19:15.916Z,36.98
2023-02-26T08:20:15.320Z,36.36
2023-02-26T08:21:12.244Z,36.75
2023-02-26T08:22:09.052Z,36.63
2023-02-26T08:23:05.817Z,37.17
2023-02-26T08:24:02.689Z,36.75
2023-02-26T08:25:00.018Z,37.17
2023-02-26T08:26:05.253Z,36.65
2023-02-26T08:27:02.005Z,37.02
2023-02-26T08:27:58.842Z,37.29
2023-02-26T08:28:55.671Z,36.57
2023-02-26T08:29:52.920Z,36.83
2023-02-26T08:30:53.834Z,36.66
2023-02-26T08:31:51.169Z,36.80
2023-02-26T08:32:49.861Z,36.91
2023-02-26T08:33:46.804Z,36.23
2023-02-26T08:34:43.904Z,36.87
2023-02-26T08:35:40.773Z,36.34
2023-02-26T08:36:37.539Z,36.33
2023-02-26T08:37:34.372Z,36.38
2023-02-26T08:38:31.890Z,36.19
2023-02-26T08:39:28.787Z,36.11
2023-02-26T08:40:25.717Z,36.37
2023-02-26T08:41:23.391Z,35.83
2023-02-26T08:42:20.677Z,36.12
2023-02-26T08:43:18.012Z,36.26
2023-02-26T08:44:14.723Z,35.41
2023-02-26T08:45:12.309Z,35.78
2023-02-26T08:46:09.221Z,36.24
2023-02-26T08:47:06.085Z,36.61
2023-02-26T08:48:02.956Z,36.35
2023-02-26T08:48:59.888Z,36.08
2023-02-26T08:49:57.310Z,36.54
2023-02-26T08:50:54.122Z,36.40
2023-02-26T08:51:50.867Z,36.25
2023-02-26T08:52:56.549Z,35.92
2023-02-26T08:53:53.428Z,35.95
2023-02-26T08:54:50.787Z,35.74
2023-02-26T08:55:52.094Z,36.03
2023-02-26T08:56:48.827Z,35.32
2023-02-26T08:57:48.184Z,35.54
2023-02-26T08:58:45.167Z,35.42
2023-02-26T08:59:42.391Z,35.11
2023-02-26T09:00:39.250Z,35.13
2023-02-26T09:01:36.149Z,35.28
2023-02-26T09:02:33.114Z,35.42
2023-02-26T09:03:29.940Z,35.28
2023-02-26T09:04:28.172Z,35.28
2023-02-26T09:05:25.977Z,35.41
2023-02-26T09:06:22.724Z,35.47
2023-02-26T09:07:20.643Z,35.17
2023-02-26T09:08:20.429Z,35.71
2023-02-26T09:09:17.601Z,35.52
2023-02-26T09:10:15.174Z,35.75
2023-02-26T09:11:12.224Z,35.87
2023-02-26T09:12:09.024Z,35.36
2023-02-26T09:13:05.859Z,35.76
2023-02-26T09:14:04.062Z,35.36
2023-02-26T09:15:00.928Z,35.34
2023-02-26T09:16:11.083Z,35.51
2023-02-26T09:17:10.431Z,35.18
2023-02-26T09:18:07.268Z,35.17
2023-02-26T09:19:05.275Z,34.67
2023-02-26T09:20:03.482Z,34.69
2023-02-26T09:21:00.237Z,35.07
2023-02-26T09:21:57.000Z,34.27
2023-02-26T09:22:53.815Z,34.78
2023-02-26T09:23:50.688Z,34.64
2023-02-26T09:24:49.312Z,34.14
2023-02-26T09:26:32.013Z,34.07
2023-02-26T09:27:44.278Z,33.78
2023-02-26T09:28:41.786Z,34.06
2023-02-26T09:29:38.637Z,33.66
2023-02-26T09:30:35.533Z,33.38
2023-02-26T09:31:32.726Z,33.40
2023-02-26T09:32:29.734Z,33.07
2023-02-26T09:33:26.742Z,32.54
2023-02-26T09:34:23.500Z,33.19
2023-02-26T09:35:20.279Z,32.52
2023-02-26T09:36:17.102Z,32.68
2023-02-26T09:37:13.966Z,32.74
2023-02-26T09:38:10.721Z,32.95
2023-02-26T09:39:08.885Z,32.79
2023-02-26T09:40:06.518Z,32.92
2023-02-26T09:41:21.279Z,32.08
2023-02-26T09:42:30.917Z,32.45
2023-02-26T09:43:53.987Z,32.30
2023-02-26T09:44:53.722Z,32.41
2023-02-26T09:45:54.906Z,32.46
2023-02-26T09:47:39.493Z,32.65
2023-02-26T09:48:39.404Z,32.86
2023-02-26T09:49:54.307Z,31.72
2023-02-26T09:50:56.116Z,32.13
2023-02-26T09:51:58.904Z,32.79
2023-02-26T09:53:20.757Z,32.36
2023-02-26T09:54:24.784Z,32.95
2023-02-26T09:55:34.701Z,32.52
2023-02-26T09:56:36.934Z,32.88
2023-02-26T09:57:46.071Z,32.69
2023-02-26T09:58:46.690Z,32.79
2023-02-26T09:59:43.538Z,32.89
2023-02-26T10:00:54.366Z,32.97
2023-02-26T10:02:32.876Z,32.97
2023-02-26T10:03:38.014Z,33.61
2023-02-26T10:04:49.916Z,33.04
2023-02-26T10:06:15.737Z,32.92
2023-02-26T10:07:52.738Z,33.40
2023-02-26T10:09:22.892Z,33.40
2023-02-26T10:10:33.431Z,33.20
2023-02-26T10:12:07.918Z,33.37
2023-02-26T10:13:05.522Z,33.34
2023-02-26T10:14:15.081Z,33.65
2023-02-26T10:15:26.003Z,33.84
2023-02-26T10:16:31.487Z,33.79
2023-02-26T10:17:59.286Z,34.05
2023-02-26T10:19:04.532Z,34.11
2023-02-26T10:20:11.505Z,34.95
2023-02-26T10:21:22.220Z,34.00
2023-02-26T10:22:33.388Z,33.91
2023-02-26T10:23:50.720Z,33.93
2023-02-26T10:24:57.898Z,34.48
2023-02-26T10:26:23.841Z,34.53
2023-02-26T10:28:00.150Z,34.22
2023-02-26T10:29:33.016Z,34.47
2023-02-26T10:30:58.215Z,34.56
2023-02-26T10:31:54.949Z,34.52
2023-02-26T10:32:57.894Z,34.98
2023-02-26T10:34:31.114Z,34.93
2023-02-26T10:35:35.959Z,34.60
2023-02-26T10:37:07.311Z,34.76
2023-02-26T10:38:16.154Z,35.10
2023-02-26T10:39:31.561Z,35.06
2023-02-26T10:40:36.118Z,34.98
2023-02-26T10:41:37.321Z,34.71
2023-02-26T10:42:42.118Z,34.86
2023-02-26T10:43:43.541Z,34.40
2023-02-26T10:44:57.196Z,34.47
2023-02-26T10:46:23.267Z,34.47
2023-02-26T10:47:37.415Z,34.42
2023-02-26T10:48:59.752Z,35.25
2023-02-26T10:50:05.356Z,34.95
2023-02-26T10:51:20.859Z,35.13
2023-02-26T10:52:21.609Z,35.28
2023-02-26T10:53:20.618Z,35.31
2023-02-26T10:54:23.098Z,35.87
2023-02-26T10:55:31.858Z,35.63
2023-02-26T10:56:32.563Z,35.72
2023-02-26T10:57:35.435Z,35.32
2023-02-26T10:58:32.315Z,35.42
2023-02-26T10:59:29.061Z,35.35
2023-02-26T11:00:25.961Z,35.28
2023-02-26T11:01:25.716Z,35.74
2023-02-26T11:02:46.032Z,35.79
2023-02-26T11:03:46.820Z,35.64
2023-02-26T11:04:43.978Z,35.62
2023-02-26T11:05:41.651Z,35.85
2023-02-26T11:06:45.580Z,35.60
2023-02-26T11:07:44.021Z,35.56
2023-02-26T11:08:45.564Z,35.69
2023-02-26T11:09:46.239Z,36.01
2023-02-26T11:10:50.801Z,36.13
2023-02-26T11:11:55.882Z,36.32
2023-02-26T11:12:53.949Z,35.74
2023-02-26T11:13:52.187Z,35.73
2023-02-26T11:14:49.818Z,35.72
2023-02-26T11:15:51.562Z,35.50
2023-02-26T11:16:56.264Z,35.61
2023-02-26T11:18:00.168Z,35.70
2023-02-26T11:19:00.540Z,35.23
2023-02-26T11:20:05.391Z,36.16
2023-02-26T11:21:05.990Z,36.42
2023-02-26T11:22:04.973Z,36.94
2023-02-26T11:23:05.311Z,36.75
2023-02-26T11:24:08.529Z,36.24
2023-02-26T11:25:06.692Z,36.48
2023-02-26T11:26:09.137Z,36.85
2023-02-26T11:27:13.620Z,36.93
2023-02-26T11:28:29.957Z,36.78
2023-02-26T11:29:26.724Z,36.90
2023-02-26T11:30:27.484Z,37.06
2023-02-26T11:31:26.806Z,37.11
2023-02-26T11:32:31.852Z,37.49
2023-02-26T11:33:37.545Z,37.53
2023-02-26T11:34:36.584Z,37.58
2023-02-26T11:35:33.607Z,37.26
2023-02-26T11:36:33.854Z,37.76
2023-02-26T11:37:38.060Z,37.21
2023-02-26T11:38:36.440Z,37.54
2023-02-26T11:39:37.957Z,37.75
2023-02-26T11:40:42.891Z,38.00
2023-02-26T11:41:40.711Z,38.12
2023-02-26T11:42:55.993Z,37.50
2023-02-26T11:44:07.862Z,38.04
2023-02-26T11:45:07.181Z,38.01
2023-02-26T11:46:06.148Z,37.65
2023-02-26T11:47:11.289Z,38.17
2023-02-26T11:48:16.225Z,38.37
2023-02-26T11:49:17.801Z,38.58
2023-02-26T11:50:20.644Z,38.75
2023-02-26T11:51:26.074Z,38.62
2023-02-26T11:52:30.301Z,38.55
2023-02-26T11:53:49.303Z,38.82
2023-02-26T11:54:50.369Z,38.09
2023-02-26T11:55:53.268Z,38.36
2023-02-26T11:56:50.471Z,38.38
2023-02-26T11:57:54.183Z,38.86
2023-02-26T11:58:55.269Z,39.11
2023-02-26T11:59:54.342Z,39.46
2023-02-26T12:00:53.866Z,38.66
2023-02-26T12:01:53.312Z,38.92
2023-02-26T12:02:50.157Z,39.58
2023-02-26T12:03:58.679Z,40.15
2023-02-26T12:05:00.739Z,40.06
2023-02-26T12:06:02.862Z,40.67
2023-02-26T12:06:59.736Z,40.73
2023-02-26T12:07:56.568Z,41.34
2023-02-26T12:08:54.187Z,41.07
2023-02-26T12:09:51.056Z,41.04
2023-02-26T12:10:56.311Z,40.70
2023-02-26T12:12:05.134Z,40.67
2023-02-26T12:13:26.458Z,41.02
2023-02-26T12:14:33.938Z,40.81
2023-02-26T12:15:51.452Z,40.87
2023-02-26T12:17:39.486Z,41.25
2023-02-26T12:18:52.544Z,41.13
2023-02-26T12:19:58.172Z,40.78
2023-02-26T12:20:57.917Z,40.82
2023-02-26T12:22:06.703Z,40.90
2023-02-26T12:23:26.109Z,40.59
2023-02-26T12:24:37.794Z,40.33
2023-02-26T12:25:37.347Z,40.51
2023-02-26T12:27:05.748Z,39.90
2023-02-26T12:28:05.626Z,40.04
2023-02-26T12:29:31.119Z,40.24
2023-02-26T12:31:01.136Z,40.56
2023-02-26T12:32:06.983Z,40.17
2023-02-26T12:33:28.472Z,39.59
2023-02-26T12:34:27.731Z,40.15
2023-02-26T12:35:39.188Z,39.67
2023-02-26T12:36:56.148Z,39.34
2023-02-26T12:38:07.826Z,39.06
2023-02-26T12:39:45.104Z,39.40
2023-02-26T12:41:08.445Z,38.78
2023-02-26T12:42:34.425Z,38.62
2023-02-26T12:43:49.389Z,38.58
2023-02-26T12:45:22.532Z,38.55
2023-02-26T12:46:47.306Z,38.22
2023-02-26T12:47:57.761Z,38.09
2023-02-26T12:49:22.108Z,38.60
2023-02-26T12:50:54.292Z,37.85
2023-02-26T12:52:03.297Z,37.80
2023-02-26T12:53:37.575Z,37.98
2023-02-26T12:55:16.463Z,38.11
2023-02-26T12:56:31.486Z,38.14
2023-02-26T12:58:03.911Z,37.94
2023-02-26T12:59:39.476Z,37.89
2023-02-26T13:00:59.230Z,38.15
2023-02-26T13:02:32.908Z,38.52
2023-02-26T13:04:24.119Z,38.32
2023-02-26T13:05:32.444Z,38.80
2023-02-26T13:07:01.721Z,38.22
2023-02-26T13:08:21.770Z,38.59
2023-02-26T13:09:21.386Z,39.11
2023-02-26T13:10:32.697Z,38.67
2023-02-26T13:11:53.945Z,39.05
2023-02-26T13:12:50.757Z,39.01
2023-02-26T13:14:45.783Z,38.77
2023-02-26T13:15:51.050Z,39.17
2023-02-26T13:17:35.144Z,39.65
2023-02-26T13:18:52.822Z,40.14
2023-02-26T13:20:00.186Z,40.22
2023-02-26T13:21:23.544Z,40.68
2023-02-26T13:22:32.734Z,40.91
2023-02-26T13:23:41.127Z,41.06
2023-02-26T13:24:52.033Z,40.86
2023-02-26T13:26:01.412Z,41.01
2023-02-26T13:27:02.416Z,41.14
2023-02-26T13:28:04.188Z,41.45
2023-02-26T13:29:06.408Z,41.14
2023-02-26T13:30:25.850Z,41.03
2023-02-26T13:31:31.345Z,40.79
2023-02-26T13:32:29.673Z,40.83
2023-02-26T13:33:31.871Z,41.14
2023-02-26T13:34:42.731Z,41.14
2023-02-26T13:35:42.923Z,41.36
2023-02-26T13:36:40.914Z,41.09
2023-02-26T13:37:42.590Z,40.97
2023-02-26T13:38:51.126Z,41.08
2023-02-26T13:39:58.262Z,41.59